Time;durP1;ratioP1;P1;durP2;ratioP2;P2;SDS_P1;SDS_P2;PMS_P1;PMS_P2;Temp;Humidity;BMP_temperature;BMP_pressure;BME280_temperature;BME280_humidity;BME280_pressure;Samples;Min_cycle;Max_cycle;Signal;HPM_P1;HPM_P2
2022/06/13 00:02:14;;;;;;;11.37;5.50;;;13.50;99.90;;;;;;4853490;29;20490;-80
2022/06/13 00:04:39;;;;;;;13.87;5.97;;;13.50;99.90;;;;;;4852725;29;20041;-79
2022/06/13 00:07:05;;;;;;;9.37;5.33;;;13.50;99.90;;;;;;4875308;29;20053;-79
2022/06/13 00:09:31;;;;;;;9.20;5.07;;;13.50;99.90;;;;;;4872610;29;20145;-79
2022/06/13 00:11:56;;;;;;;12.27;6.13;;;13.50;99.90;;;;;;4853345;29;20462;-80
2022/06/13 00:14:22;;;;;;;12.63;5.40;;;13.50;99.90;;;;;;4863180;29;20045;-79
2022/06/13 00:16:48;;;;;;;12.47;6.20;;;13.40;99.90;;;;;;4838763;29;20128;-79
2022/06/13 00:19:13;;;;;;;12.63;6.10;;;13.50;99.90;;;;;;4876107;29;20067;-79
2022/06/13 00:21:39;;;;;;;14.83;5.70;;;13.50;99.90;;;;;;4861773;29;20091;-79
2022/06/13 00:24:07;;;;;;;15.27;5.83;;;13.50;99.90;;;;;;4866810;29;20689;-79
2022/06/13 00:26:36;;;;;;;16.53;5.97;;;13.50;99.90;;;;;;4847381;29;20049;-79
2022/06/13 00:29:02;;;;;;;14.23;5.80;;;13.40;99.90;;;;;;4848338;29;20055;-79
2022/06/13 00:31:28;;;;;;;11.03;5.60;;;13.50;99.90;;;;;;4847949;29;20048;-80
2022/06/13 00:33:54;;;;;;;14.00;6.30;;;13.50;99.90;;;;;;4860129;29;20039;-79
2022/06/13 00:36:23;;;;;;;11.53;5.27;;;13.50;99.90;;;;;;4847455;29;20103;-79
2022/06/13 00:38:49;;;;;;;12.37;6.20;;;13.50;99.90;;;;;;4865540;29;20056;-79
2022/06/13 00:41:20;;;;;;;10.00;5.70;;;13.50;99.90;;;;;;4871176;29;20045;-80
2022/06/13 00:43:46;;;;;;;12.07;5.97;;;13.50;99.90;;;;;;4863437;29;20080;-80
2022/06/13 00:46:25;;;;;;;14.20;6.30;;;13.50;99.90;;;;;;4832974;29;20053;-80
2022/06/13 00:48:59;;;;;;;12.27;5.87;;;13.50;99.90;;;;;;4863115;29;20059;-79
2022/06/13 00:51:25;;;;;;;11.83;5.33;;;13.50;99.90;;;;;;4867280;29;20057;-80
2022/06/13 00:53:53;;;;;;;14.83;5.60;;;13.50;99.90;;;;;;4846817;29;20048;-79
2022/06/13 00:56:22;;;;;;;10.00;5.43;;;13.50;99.90;;;;;;4861507;29;20110;-79
2022/06/13 00:59:02;;;;;;;15.00;6.47;;;13.50;99.90;;;;;;4878934;29;20036;-80
2022/06/13 01:01:31;;;;;;;12.57;5.67;;;13.50;99.90;;;;;;4876848;29;20048;-80
2022/06/13 01:04:01;;;;;;;10.90;5.37;;;13.50;99.90;;;;;;4876698;29;20057;-79
2022/06/13 01:06:29;;;;;;;11.23;5.40;;;13.50;99.90;;;;;;4871693;29;20055;-79
2022/06/13 01:08:55;;;;;;;14.93;5.50;;;13.50;99.90;;;;;;4864919;29;20048;-80
2022/06/13 01:11:24;;;;;;;14.77;6.60;;;13.50;99.90;;;;;;4857842;29;20052;-79
2022/06/13 01:14:24;;;;;;;13.07;5.87;;;13.50;99.90;;;;;;4870554;29;20099;-79
2022/06/13 01:17:08;;;;;;;16.17;6.20;;;13.50;99.90;;;;;;4863699;29;20170;-79
2022/06/13 01:19:55;;;;;;;14.70;5.73;;;13.50;99.90;;;;;;4858643;29;20523;-80
2022/06/13 01:22:38;;;;;;;13.63;6.10;;;13.50;99.90;;;;;;4879180;29;20052;-79
2022/06/13 01:25:42;;;;;;;14.13;6.87;;;13.40;99.90;;;;;;4865654;29;20076;-79
2022/06/13 01:28:21;;;;;;;13.00;5.93;;;13.50;99.90;;;;;;4864564;29;20136;-79
2022/06/13 01:31:17;;;;;;;13.03;5.90;;;13.50;99.90;;;;;;4875340;29;20093;-79
2022/06/13 01:33:59;;;;;;;17.20;5.83;;;13.50;99.90;;;;;;4862424;29;20041;-80
2022/06/13 01:36:24;;;;;;;;;;;13.50;99.90;;;;;;4882849;29;20383;-79
2022/06/13 01:39:12;;;;;;;15.50;5.73;;;13.40;99.90;;;;;;4851181;29;20013;-80
2022/06/13 01:42:02;;;;;;;11.97;5.77;;;13.40;99.90;;;;;;4856788;29;20065;-80
2022/06/13 01:44:28;;;;;;;11.13;5.33;;;13.40;99.90;;;;;;4863682;29;20048;-80
2022/06/13 01:47:12;;;;;;;13.97;5.60;;;13.40;99.90;;;;;;4857181;29;20041;-80
2022/06/13 01:49:53;;;;;;;16.10;6.50;;;13.40;99.90;;;;;;4855060;29;20372;-80
2022/06/13 01:52:27;;;;;;;13.00;6.05;;;13.40;99.90;;;;;;4874169;29;20041;-80
2022/06/13 01:55:11;;;;;;;14.37;5.73;;;13.40;99.90;;;;;;4867260;29;20052;-79
2022/06/13 01:57:50;;;;;;;12.90;5.50;;;13.40;99.90;;;;;;4847131;29;20082;-80
2022/06/13 02:00:35;;;;;;;14.10;5.73;;;13.40;99.90;;;;;;4853529;29;20550;-79
2022/06/13 02:03:16;;;;;;;12.97;5.80;;;13.30;99.90;;;;;;4875574;29;20048;-80
2022/06/13 02:05:48;;;;;;;12.85;5.88;;;13.30;99.90;;;;;;4847070;29;20049;-80
2022/06/13 02:08:29;;;;;;;13.70;5.80;;;13.30;99.90;;;;;;4857433;29;20603;-79
2022/06/13 02:11:04;;;;;;;13.03;5.63;;;13.30;99.90;;;;;;4862012;29;20132;-80
2022/06/13 02:13:42;;;;;;;16.87;5.83;;;13.30;99.90;;;;;;4855687;29;20052;-79
2022/06/13 02:16:14;;;;;;;12.97;5.80;;;13.20;99.90;;;;;;4847370;29;20045;-80
2022/06/13 02:18:52;;;;;;;16.70;6.40;;;13.20;99.90;;;;;;4857480;29;20053;-79
2022/06/13 02:21:21;;;;;;;14.10;6.30;;;13.20;99.90;;;;;;4865415;29;20081;-80
2022/06/13 02:23:51;;;;;;;11.50;5.97;;;13.20;99.90;;;;;;4871089;29;20440;-80
2022/06/13 02:26:25;;;;;;;11.77;5.93;;;13.20;99.90;;;;;;4879187;29;20665;-80
2022/06/13 02:28:59;;;;;;;18.90;6.77;;;13.20;99.90;;;;;;4844851;29;20594;-79
2022/06/13 02:31:35;;;;;;;15.87;6.53;;;13.30;99.90;;;;;;4861480;29;20045;-80
2022/06/13 02:34:18;;;;;;;17.60;6.50;;;13.20;99.90;;;;;;4862465;29;20136;-78
2022/06/13 02:37:02;;;;;;;12.40;6.40;;;13.30;99.90;;;;;;4870498;29;20045;-80
2022/06/13 02:39:36;;;;;;;11.93;6.10;;;13.30;99.90;;;;;;4876754;29;20036;-80
2022/06/13 02:42:10;;;;;;;11.47;6.53;;;13.30;99.90;;;;;;4869120;29;20045;-80
2022/06/13 02:45:01;;;;;;;17.23;7.37;;;13.30;99.90;;;;;;4868465;29;20072;-80
2022/06/13 02:47:43;;;;;;;11.75;6.22;;;13.30;99.90;;;;;;4855837;29;20386;-80
2022/06/13 02:50:39;;;;;;;17.50;6.82;;;13.30;99.90;;;;;;4873958;29;20451;-80
2022/06/13 02:53:17;;;;;;;17.67;6.93;;;13.30;99.90;;;;;;4850788;29;20052;-79
2022/06/13 02:55:51;;;;;;;11.73;6.80;;;13.30;99.90;;;;;;4855937;29;20038;-79
2022/06/13 02:59:02;;;;;;;14.10;6.50;;;13.20;99.90;;;;;;4875878;29;20372;-79
2022/06/13 03:01:35;;;;;;;16.63;6.83;;;13.30;99.90;;;;;;4833910;29;20384;-80
2022/06/13 03:04:04;;;;;;;16.87;6.90;;;13.30;99.90;;;;;;4867993;29;20096;-80
2022/06/13 03:06:39;;;;;;;13.17;6.33;;;13.30;99.90;;;;;;4865771;29;20112;-80
2022/06/13 03:09:11;;;;;;;16.73;6.47;;;13.30;99.90;;;;;;4863930;29;20079;-80
2022/06/13 03:11:46;;;;;;;11.50;6.93;;;13.30;99.90;;;;;;4854160;29;20044;-80
2022/06/13 03:14:29;;;;;;;13.00;7.17;;;13.30;99.90;;;;;;4850451;29;20088;-80
2022/06/13 03:17:28;;;;;;;17.20;7.30;;;13.30;99.90;;;;;;4864932;29;20073;-79
2022/06/13 03:20:01;;;;;;;16.93;7.50;;;13.30;99.90;;;;;;4876376;29;20087;-80
2022/06/13 03:22:35;;;;;;;16.13;7.20;;;13.30;99.90;;;;;;4845287;29;20131;-80
2022/06/13 03:25:24;;;;;;;16.73;7.80;;;13.30;99.90;;;;;;4851011;29;20054;-80
2022/06/13 03:28:09;;;;;;;14.87;7.57;;;13.30;99.90;;;;;;4863808;29;20041;-80
2022/06/13 03:30:39;;;;;;;17.17;7.63;;;13.30;99.90;;;;;;4871882;29;20203;-80
2022/06/13 03:35:57;;;;;;;17.37;7.10;;;13.30;99.90;;;;;;4879584;29;20124;-80
2022/06/13 03:38:32;;;;;;;20.37;7.83;;;13.30;99.90;;;;;;4848895;29;20503;-80
2022/06/13 03:41:01;;;;;;;17.87;7.07;;;13.30;99.90;;;;;;4861190;29;20081;-80
2022/06/13 03:43:33;;;;;;;13.97;7.20;;;13.30;99.90;;;;;;4837637;29;20050;-80
2022/06/13 03:46:08;;;;;;;15.93;7.83;;;13.40;99.90;;;;;;4870379;29;20815;-80
2022/06/13 03:48:53;;;;;;;16.67;7.60;;;13.40;99.90;;;;;;4874164;29;20045;-80
2022/06/13 03:51:23;;;;;;;16.77;7.53;;;13.40;99.90;;;;;;4874230;29;20082;-80
2022/06/13 03:54:02;;;;;;;18.20;7.93;;;13.40;99.90;;;;;;4874055;29;20702;-81
2022/06/13 03:56:50;;;;;;;15.40;7.70;;;13.50;99.90;;;;;;4879107;29;20045;-80
2022/06/13 03:59:28;;;;;;;15.17;7.87;;;13.50;99.90;;;;;;4843009;29;20552;-80
2022/06/13 04:02:02;;;;;;;17.50;7.20;;;13.50;99.90;;;;;;4867451;29;20041;-80
2022/06/13 04:04:35;;;;;;;18.43;7.83;;;13.50;99.90;;;;;;4868771;29;20040;-79
2022/06/13 04:07:01;;;;;;;17.73;7.97;;;13.60;99.90;;;;;;4869604;29;20049;-80
2022/06/13 04:09:39;;;;;;;16.20;7.77;;;13.60;99.90;;;;;;4847339;29;20116;-80
2022/06/13 04:12:11;;;;;;;18.53;7.60;;;13.60;99.90;;;;;;4861019;29;20100;-80
2022/06/13 04:14:39;;;;;;;17.45;7.78;;;13.60;99.90;;;;;;4863686;29;20480;-80
2022/06/13 04:17:27;;;;;;;16.67;7.03;;;13.70;99.90;;;;;;4870377;29;20432;-80
2022/06/13 04:20:17;;;;;;;15.63;7.17;;;13.70;99.90;;;;;;4859097;29;20053;-80
2022/06/13 04:22:59;;;;;;;14.27;7.47;;;13.70;99.90;;;;;;4853883;29;20127;-80
2022/06/13 04:25:43;;;;;;;;;;;13.70;99.90;;;;;;4866566;29;20100;-80
2022/06/13 04:28:19;;;;;;;17.97;8.30;;;13.70;99.90;;;;;;4872860;29;19924;-80
2022/06/13 04:30:46;;;;;;;15.23;7.30;;;13.70;99.90;;;;;;4862330;29;20044;-80
2022/06/13 04:33:21;;;;;;;14.47;7.17;;;13.70;99.90;;;;;;4859265;29;20048;-80
2022/06/13 04:35:47;;;;;;;15.53;7.50;;;13.80;99.90;;;;;;4856850;29;20044;-80
2022/06/13 04:38:16;;;;;;;11.17;6.70;;;13.80;99.90;;;;;;4853393;29;20048;-79
2022/06/13 04:40:48;;;;;;;18.20;7.07;;;13.80;99.90;;;;;;4863926;29;20519;-80
2022/06/13 04:43:16;;;;;;;17.35;7.00;;;13.80;99.90;;;;;;4875491;29;20728;-80
2022/06/13 04:45:52;;;;;;;15.93;6.30;;;13.80;99.90;;;;;;4848095;29;20080;-80
2022/06/13 04:48:18;;;;;;;13.57;5.63;;;13.90;99.90;;;;;;4856384;29;20128;-80
2022/06/13 04:50:50;;;;;;;12.67;5.83;;;13.90;99.90;;;;;;4858443;29;20460;-80
2022/06/13 04:53:21;;;;;;;12.30;5.18;;;14.00;99.90;;;;;;4863602;29;20048;-80
2022/06/13 04:55:48;;;;;;;10.20;4.90;;;14.10;99.90;;;;;;4856062;29;20051;-80
2022/06/13 04:58:33;;;;;;;12.20;5.10;;;14.10;99.90;;;;;;4856448;29;20055;-80
2022/06/13 05:01:29;;;;;;;11.93;4.40;;;14.20;99.90;;;;;;4875230;29;20091;-80
2022/06/13 05:03:57;;;;;;;6.33;4.17;;;14.30;99.90;;;;;;4847975;29;20131;-81
2022/06/13 05:06:56;;;;;;;13.40;4.40;;;14.30;99.90;;;;;;4876492;29;20087;-80
2022/06/13 05:09:30;;;;;;;9.73;4.20;;;14.50;99.90;;;;;;4848983;29;20052;-82
2022/06/13 05:12:04;;;;;;;12.07;4.50;;;14.50;99.90;;;;;;4882361;29;20079;-82
2022/06/13 05:14:53;;;;;;;10.90;3.87;;;14.70;99.90;;;;;;4861895;29;20063;-81
2022/06/13 05:17:55;;;;;;;9.90;3.53;;;14.80;99.90;;;;;;4878414;29;20491;-81
2022/06/13 05:20:46;;;;;;;11.18;4.72;;;14.90;99.90;;;;;;4850077;29;20064;-82
2022/06/13 05:23:47;;;;;;;9.70;3.30;;;15.00;99.90;;;;;;4866401;29;20384;-81
2022/06/13 05:26:13;;;;;;;8.77;3.72;;;15.00;99.90;;;;;;4819320;29;20507;-80
2022/06/13 05:28:38;;;;;;;7.35;3.25;;;15.10;99.90;;;;;;4833435;29;20056;-81
2022/06/13 05:31:19;;;;;;;10.82;3.13;;;15.10;99.90;;;;;;4863532;29;20080;-80
2022/06/13 05:33:48;;;;;;;13.40;3.35;;;15.10;99.90;;;;;;4852761;29;20045;-82
2022/06/13 05:36:19;;;;;;;13.57;3.88;;;15.20;99.90;;;;;;4859806;29;20434;-81
2022/06/13 05:39:00;;;;;;;8.07;3.10;;;15.20;99.90;;;;;;4860310;29;20045;-82
2022/06/13 05:41:26;;;;;;;13.35;3.60;;;15.10;99.90;;;;;;4849843;29;20145;-82
2022/06/13 05:43:52;;;;;;;7.47;2.83;;;15.10;99.90;;;;;;4859319;29;20077;-81
2022/06/13 05:46:31;;;;;;;7.82;3.10;;;15.00;99.90;;;;;;4844123;29;20051;-80
2022/06/13 05:48:57;;;;;;;6.20;2.65;;;15.00;99.90;;;;;;4872255;29;20143;-79
2022/06/13 05:51:22;;;;;;;5.35;2.63;;;14.90;99.90;;;;;;4857681;29;20077;-79
2022/06/13 05:53:48;;;;;;;4.33;2.60;;;14.90;99.90;;;;;;4856795;29;20076;-79
2022/06/13 05:56:14;;;;;;;8.60;2.40;;;14.80;99.90;;;;;;4840614;29;20041;-79
2022/06/13 05:58:40;;;;;;;9.27;2.70;;;14.60;99.90;;;;;;4839211;29;20105;-80
2022/06/13 06:01:07;;;;;;;4.90;2.30;;;14.50;99.90;;;;;;4838332;29;20080;-78
2022/06/13 06:03:33;;;;;;;5.57;2.35;;;14.50;99.90;;;;;;4853731;29;20045;-77
2022/06/13 06:06:00;;;;;;;7.60;2.87;;;14.60;99.90;;;;;;4850723;29;20555;-80
2022/06/13 06:08:29;;;;;;;6.93;2.20;;;14.90;99.90;;;;;;4850453;29;20105;-78
2022/06/13 06:10:56;;;;;;;4.43;1.97;;;15.00;99.90;;;;;;4853586;29;20183;-77
2022/06/13 06:13:23;;;;;;;3.90;2.13;;;14.90;99.90;;;;;;4846007;29;20052;-80
2022/06/13 06:15:50;;;;;;;7.03;2.17;;;15.00;99.90;;;;;;4841346;29;20045;-79
2022/06/13 06:18:17;;;;;;;5.72;2.00;;;15.20;99.90;;;;;;4839658;29;20049;-81
2022/06/13 06:20:43;;;;;;;2.50;1.83;;;15.30;99.90;;;;;;4863947;29;20119;-79
2022/06/13 06:23:09;;;;;;;3.92;2.30;;;15.50;99.90;;;;;;4836137;29;20057;-80
2022/06/13 06:25:35;;;;;;;3.10;1.65;;;15.70;99.90;;;;;;4856108;29;20128;-81
2022/06/13 06:28:02;;;;;;;4.75;1.92;;;15.80;99.90;;;;;;4873611;29;20044;-78
2022/06/13 06:30:29;;;;;;;5.28;1.73;;;16.00;99.90;;;;;;4854975;29;20033;-79
2022/06/13 06:32:56;;;;;;;4.43;1.70;;;16.10;99.90;;;;;;4841105;29;20049;-79
2022/06/13 06:35:24;;;;;;;2.92;1.52;;;16.30;99.90;;;;;;4842174;29;20447;-79
2022/06/13 06:37:52;;;;;;;4.55;1.40;;;16.40;99.90;;;;;;4862252;29;20053;-77
2022/06/13 06:40:19;;;;;;;6.05;1.67;;;16.50;99.90;;;;;;4861990;29;20402;-78
2022/06/13 06:42:45;;;;;;;5.78;1.63;;;16.70;99.90;;;;;;4840701;29;20076;-79
2022/06/13 06:45:12;;;;;;;5.20;1.50;;;16.80;99.90;;;;;;4854886;29;20081;-79
2022/06/13 06:47:39;;;;;;;4.65;1.52;;;16.60;99.90;;;;;;4836387;29;20049;-80
2022/06/13 06:50:06;;;;;;;2.15;1.30;;;16.60;99.90;;;;;;4829250;29;20049;-78
2022/06/13 06:52:32;;;;;;;7.85;1.55;;;16.30;99.90;;;;;;4841867;29;20048;-78
2022/06/13 07:00:26;;;;;;;3.33;1.77;;;15.90;99.90;;;;;;4845978;29;20493;-80
2022/06/13 07:02:52;;;;;;;7.00;1.33;;;15.80;99.90;;;;;;4864026;29;20132;-79
2022/06/13 07:05:18;;;;;;;4.05;1.27;;;15.70;99.90;;;;;;4854301;29;20093;-77
2022/06/13 07:07:44;;;;;;;4.07;1.60;;;15.60;99.90;;;;;;4851026;29;20053;-79
2022/06/13 07:10:12;;;;;;;4.82;1.67;;;15.40;99.90;;;;;;4832103;29;20040;-78
2022/06/13 07:12:38;;;;;;;4.38;1.23;;;15.20;99.90;;;;;;4849430;29;20050;-80
2022/06/13 07:15:04;;;;;;;4.60;1.58;;;15.00;99.90;;;;;;4852312;29;20049;-80
2022/06/13 07:17:30;;;;;;;4.60;1.33;;;14.80;99.90;;;;;;4868751;29;20036;-80
2022/06/13 07:19:56;;;;;;;2.88;1.70;;;14.70;99.90;;;;;;4859536;29;20177;-80
2022/06/13 07:22:23;;;;;;;3.33;1.67;;;14.60;99.90;;;;;;4859126;29;20053;-80
2022/06/13 07:24:49;;;;;;;4.55;1.98;;;14.60;99.90;;;;;;4854293;29;20124;-80
2022/06/13 07:27:15;;;;;;;4.32;1.30;;;14.60;99.90;;;;;;4860898;29;20083;-79
2022/06/13 07:29:42;;;;;;;2.75;1.58;;;14.80;99.90;;;;;;4834021;29;20072;-80
2022/06/13 07:32:16;;;;;;;2.30;1.10;;;15.10;99.90;;;;;;4853244;29;20121;-81
2022/06/13 07:34:43;;;;;;;3.20;1.10;;;15.40;99.90;;;;;;4847027;29;20120;-80
2022/06/13 07:37:12;;;;;;;2.22;1.10;;;15.60;99.90;;;;;;4867314;29;20049;-79
2022/06/13 07:39:38;;;;;;;5.43;1.20;;;15.90;99.90;;;;;;4865627;29;20100;-81
2022/06/13 07:42:05;;;;;;;2.28;1.00;;;16.00;99.90;;;;;;4855619;29;20045;-80
2022/06/13 07:44:36;;;;;;;1.65;1.00;;;16.20;99.90;;;;;;4846176;29;20582;-79
2022/06/13 07:47:02;;;;;;;4.13;1.13;;;16.40;99.90;;;;;;4859309;29;20055;-80
2022/06/13 07:49:28;;;;;;;3.92;0.93;;;16.50;99.90;;;;;;4853107;29;20545;-80
2022/06/13 07:51:54;;;;;;;2.30;1.20;;;16.70;99.90;;;;;;4848409;29;20496;-81
2022/06/13 07:54:21;;;;;;;3.95;1.40;;;16.90;99.90;;;;;;4850980;29;20033;-81
2022/06/13 07:56:47;;;;;;;4.07;1.35;;;17.00;99.90;;;;;;4860264;29;20079;-80
2022/06/13 07:59:16;;;;;;;1.25;1.02;;;17.00;99.90;;;;;;4875000;29;20052;-80
2022/06/13 08:01:43;;;;;;;5.40;1.50;;;17.10;99.90;;;;;;4859039;29;20053;-80
2022/06/13 08:04:09;;;;;;;2.22;1.33;;;17.20;99.90;;;;;;4838599;29;20502;-82
2022/06/13 08:06:38;;;;;;;2.05;1.38;;;17.30;99.90;;;;;;4866359;29;20045;-82
2022/06/13 08:09:04;;;;;;;2.40;1.25;;;17.40;99.90;;;;;;4866163;29;20091;-81
2022/06/13 08:11:34;;;;;;;4.18;1.65;;;17.60;99.90;;;;;;4844246;29;20049;-81
2022/06/13 08:14:00;;;;;;;3.00;1.35;;;17.70;99.90;;;;;;4858631;29;20463;-82
2022/06/13 08:16:27;;;;;;;5.75;1.75;;;17.80;99.90;;;;;;4846942;29;20114;-79
2022/06/13 08:18:53;;;;;;;5.68;1.70;;;17.80;99.90;;;;;;4874110;29;20037;-80
2022/06/13 08:21:19;;;;;;;3.20;1.30;;;18.10;99.90;;;;;;4859434;29;20055;-80
2022/06/13 08:23:48;;;;;;;5.55;2.10;;;18.30;99.90;;;;;;4851952;29;20044;-82
2022/06/13 08:26:13;;;;;;;3.83;1.50;;;18.40;99.90;;;;;;4870499;29;20051;-82
2022/06/13 08:28:39;;;;;;;5.40;1.90;;;18.30;99.90;;;;;;4835680;29;20037;-83
2022/06/13 08:31:11;;;;;;;5.00;1.20;;;18.00;99.90;;;;;;4851691;29;20128;-82
2022/06/13 08:33:38;;;;;;;5.78;1.90;;;17.70;99.90;;;;;;4837708;29;20076;-80
2022/06/13 08:36:05;;;;;;;3.40;1.40;;;17.30;99.90;;;;;;4825421;29;20522;-79
2022/06/13 08:38:30;;;;;;;6.07;1.50;;;17.20;99.90;;;;;;4862277;29;20656;-81
2022/06/13 08:41:14;;;;;;;6.72;1.77;;;17.30;99.90;;;;;;4849224;29;20072;-79
2022/06/13 08:44:01;;;;;;;3.08;1.27;;;17.30;99.90;;;;;;4853449;29;20051;-80
2022/06/13 08:46:39;;;;;;;3.65;1.70;;;17.30;99.90;;;;;;4846399;29;20042;-78
2022/06/13 08:49:27;;;;;;;7.05;1.70;;;17.10;99.90;;;;;;4860109;29;20045;-78
2022/06/13 08:52:01;;;;;;;4.60;1.65;;;16.90;99.90;;;;;;4855822;29;20086;-80
2022/06/13 08:54:32;;;;;;;4.30;1.40;;;16.60;99.90;;;;;;4861276;29;20040;-80
2022/06/13 08:57:04;;;;;;;4.05;1.48;;;16.30;99.90;;;;;;4869332;29;20049;-80
2022/06/13 08:59:40;;;;;;;4.80;1.55;;;16.20;99.90;;;;;;4839566;29;20135;-79
2022/06/13 09:02:13;;;;;;;3.30;1.30;;;16.10;99.90;;;;;;4868774;29;20048;-79
2022/06/13 09:04:53;;;;;;;3.65;1.40;;;16.30;99.90;;;;;;4879022;29;20040;-79
2022/06/13 09:07:39;;;;;;;5.03;1.63;;;16.30;99.90;;;;;;4872209;29;20044;-78
2022/06/13 09:10:15;;;;;;;7.03;2.13;;;16.10;99.90;;;;;;4875634;29;20045;-79
2022/06/13 09:12:47;;;;;;;7.80;1.80;;;16.00;99.90;;;;;;4863193;29;20471;-79
2022/06/13 09:15:23;;;;;;;3.95;1.52;;;15.90;99.90;;;;;;4863481;29;20120;-80
2022/06/13 09:18:23;;;;;;;6.13;1.40;;;15.90;99.90;;;;;;4851509;29;20105;-79
2022/06/13 09:21:16;;;;;;;6.80;1.70;;;15.90;99.90;;;;;;4839008;29;20053;-78
2022/06/13 09:24:09;;;;;;;3.13;1.15;;;15.90;99.90;;;;;;4849041;29;20525;-78
2022/06/13 09:27:00;;;;;;;3.17;1.40;;;16.30;99.90;;;;;;4847033;29;20080;-79
2022/06/13 09:29:36;;;;;;;5.55;1.40;;;16.90;99.90;;;;;;4856764;29;20060;-79
2022/06/13 09:32:16;;;;;;;5.13;1.50;;;17.40;99.90;;;;;;4852918;29;20041;-78
2022/06/13 09:34:46;;;;;;;3.45;1.20;;;17.90;99.90;;;;;;4848626;29;20037;-78
2022/06/13 09:37:16;;;;;;;3.60;1.20;;;18.20;99.90;;;;;;4873396;29;20041;-78
2022/06/13 09:39:42;;;;;;;7.15;1.65;;;18.10;99.90;;;;;;4874093;29;20036;-77
2022/06/13 09:42:07;;;;;;;4.38;1.67;;;17.90;99.90;;;;;;4843167;29;20041;-78
2022/06/13 09:44:47;;;;;;;4.22;1.35;;;17.70;99.90;;;;;;4855054;29;20133;-80
2022/06/13 09:47:40;;;;;;;5.93;1.58;;;17.90;99.90;;;;;;4861733;29;20071;-78
2022/06/13 09:50:21;;;;;;;2.50;1.10;;;18.20;99.90;;;;;;4868010;29;20510;-77
2022/06/13 09:53:02;;;;;;;3.50;1.13;;;18.20;99.90;;;;;;4860540;29;20041;-79
2022/06/13 09:55:44;;;;;;;4.63;1.10;;;18.20;99.90;;;;;;4880583;29;20045;-78
2022/06/13 09:58:32;;;;;;;3.15;1.40;;;17.90;99.90;;;;;;4847872;29;20046;-79
2022/06/13 10:01:07;;;;;;;6.25;1.13;;;17.60;99.90;;;;;;4838898;29;20084;-78
2022/06/13 10:03:58;;;;;;;3.42;1.00;;;17.30;99.90;;;;;;4881210;29;20076;-78
2022/06/13 10:06:41;;;;;;;2.60;1.10;;;17.10;99.90;;;;;;4858407;29;20041;-76
2022/06/13 10:09:44;;;;;;;7.57;1.67;;;17.20;99.90;;;;;;4860899;29;20063;-78
2022/06/13 10:12:37;;;;;;;4.10;1.42;;;17.20;99.90;;;;;;4867902;29;20052;-79
2022/06/13 10:15:15;;;;;;;4.00;1.33;;;17.60;99.90;;;;;;4869070;29;20100;-79
2022/06/13 10:18:02;;;;;;;4.30;1.42;;;17.70;99.90;;;;;;4840904;29;20445;-77
2022/06/13 10:20:46;;;;;;;5.57;1.30;;;18.10;99.90;;;;;;4852357;29;20053;-79
2022/06/13 10:23:44;;;;;;;4.65;1.27;;;18.40;99.90;;;;;;4843862;29;20552;-79
2022/06/13 10:26:47;;;;;;;3.08;1.17;;;18.70;99.90;;;;;;4884879;29;20052;-78
2022/06/13 10:29:43;;;;;;;5.10;1.33;;;17.80;99.90;;;;;;4851016;29;20048;-78
2022/06/13 10:32:14;;;;;;;4.03;1.33;;;16.70;99.90;;;;;;4871486;29;20050;-79
2022/06/13 10:34:55;;;;;;;4.50;1.60;;;16.20;99.90;;;;;;4858045;29;20616;-78
2022/06/13 10:37:26;;;;;;;4.07;1.35;;;15.80;99.90;;;;;;4856623;29;20055;-79
2022/06/13 10:39:55;;;;;;;3.63;1.55;;;15.60;99.90;;;;;;4873492;29;20190;-78
2022/06/13 10:42:25;;;;;;;4.75;1.95;;;15.50;99.90;;;;;;4869250;29;20052;-78
2022/06/13 10:44:51;;;;;;;6.45;2.47;;;15.50;99.90;;;;;;4864096;29;20045;-78
2022/06/13 10:47:49;;;;;;;4.90;1.65;;;15.80;99.90;;;;;;4871358;29;20499;-79
2022/06/13 10:50:24;;;;;;;6.28;1.92;;;16.40;99.90;;;;;;4844741;29;20053;-80
2022/06/13 10:52:53;;;;;;;4.47;1.42;;;16.90;99.90;;;;;;4860509;29;20428;-80
2022/06/13 10:55:23;;;;;;;4.05;1.85;;;17.10;99.90;;;;;;4866327;29;20049;-78
2022/06/13 10:58:00;;;;;;;4.28;1.65;;;17.10;99.90;;;;;;4860866;29;20144;-79
2022/06/13 11:00:28;;;;;;;4.32;1.52;;;16.90;99.90;;;;;;4861622;29;20063;-79
2022/06/13 11:03:09;;;;;;;2.83;1.40;;;16.70;99.90;;;;;;4879191;29;20131;-79
2022/06/13 11:05:52;;;;;;;2.30;1.20;;;16.70;99.90;;;;;;4863376;29;20415;-78
2022/06/13 11:08:18;;;;;;;1.80;1.50;;;16.50;99.90;;;;;;4874042;29;20068;-79
2022/06/13 11:11:05;;;;;;;5.55;1.40;;;16.40;99.90;;;;;;4857771;29;20575;-79
2022/06/13 11:13:36;;;;;;;2.22;1.10;;;16.30;99.90;;;;;;4851088;29;20652;-79
2022/06/13 11:24:51;;;;;;;7.50;1.83;;;16.70;99.90;;;;;;4877694;29;20135;-79
2022/06/13 11:27:39;;;;;;;5.07;1.83;;;17.00;99.90;;;;;;4874159;29;20045;-77
2022/06/13 11:30:27;;;;;;;5.55;1.67;;;17.20;99.90;;;;;;4862663;29;20049;-78
2022/06/13 11:32:59;;;;;;;6.45;1.73;;;17.50;99.90;;;;;;4855072;29;20047;-78
2022/06/13 11:35:40;;;;;;;4.57;1.55;;;17.90;99.90;;;;;;4866133;29;20037;-78
2022/06/13 11:38:24;;;;;;;6.93;1.60;;;17.90;99.90;;;;;;4850426;29;20123;-79
2022/06/13 11:41:05;;;;;;;7.53;1.70;;;17.60;99.90;;;;;;4868538;29;20059;-78
2022/06/13 11:43:36;;;;;;;5.78;2.05;;;17.40;99.90;;;;;;4842538;29;20056;-78
2022/06/13 11:46:32;;;;;;;7.20;1.80;;;17.70;99.90;;;;;;4878127;29;20775;-78
2022/06/13 11:49:18;;;;;;;6.15;1.58;;;18.10;99.90;;;;;;4854677;29;20377;-78
2022/06/13 11:52:11;;;;;;;4.45;1.70;;;18.60;99.90;;;;;;4846455;29;20046;-79
2022/06/13 11:54:40;;;;;;;7.18;1.60;;;19.00;99.90;;;;;;4877627;29;20108;-79
2022/06/13 11:57:18;;;;;;;4.15;1.30;;;19.00;99.90;;;;;;4860484;29;20050;-78
2022/06/13 11:59:55;;;;;;;8.27;1.50;;;18.70;99.90;;;;;;4873796;29;20135;-78
2022/06/13 12:02:26;;;;;;;5.80;1.70;;;18.40;99.90;;;;;;4847001;29;20403;-79
2022/06/13 12:04:56;;;;;;;7.65;1.77;;;18.20;99.90;;;;;;4863812;29;20039;-77
2022/06/13 12:07:31;;;;;;;6.65;1.98;;;18.00;99.90;;;;;;4859058;29;20041;-79
2022/06/13 12:10:00;;;;;;;4.18;1.63;;;17.90;99.90;;;;;;4852622;29;20042;-79
2022/06/13 12:12:43;;;;;;;7.25;2.08;;;17.80;99.90;;;;;;4853831;29;20125;-78
2022/06/13 12:15:13;;;;;;;8.07;2.25;;;17.90;99.90;;;;;;4857693;29;20057;-77
2022/06/13 12:17:48;;;;;;;5.72;2.08;;;17.90;99.90;;;;;;4855921;29;20059;-78
2022/06/13 12:20:44;;;;;;;5.45;1.90;;;17.90;99.90;;;;;;4849767;29;20407;-78
2022/06/13 12:23:15;;;;;;;4.47;1.33;;;18.00;99.90;;;;;;4843489;29;20054;-78
2022/06/13 12:25:50;;;;;;;7.07;1.73;;;18.30;99.90;;;;;;4845124;29;20048;-79
2022/06/13 12:28:21;;;;;;;3.05;1.67;;;18.60;99.90;;;;;;4868794;29;20659;-78
2022/06/13 12:31:00;;;;;;;5.38;1.65;;;19.10;99.90;;;;;;4862325;29;20049;-79
2022/06/13 12:34:02;;;;;;;4.93;1.65;;;19.30;99.90;;;;;;4870657;29;20048;-78
2022/06/13 12:36:48;;;;;;;4.78;1.80;;;19.30;99.60;;;;;;4794044;29;20051;-79
2022/06/13 12:39:42;;;;;;;7.05;1.77;;;19.40;99.90;;;;;;4846263;29;20037;-79
2022/06/13 12:42:37;;;;;;;4.28;1.73;;;19.40;99.90;;;;;;4853392;29;20412;-78
2022/06/13 12:45:28;;;;;;;4.40;1.63;;;19.20;99.90;;;;;;4858331;29;20491;-77
2022/06/13 12:48:03;;;;;;;9.73;2.03;;;18.90;99.70;;;;;;4856024;29;20136;-78
2022/06/13 12:50:58;;;;;;;5.47;1.80;;;18.80;99.90;;;;;;4857794;29;20369;-78
2022/06/13 12:53:34;;;;;;;6.60;1.77;;;18.80;99.90;;;;;;4858484;29;20096;-78
2022/06/13 12:56:47;;;;;;;3.92;1.60;;;19.00;99.90;;;;;;4840825;29;20037;-78
2022/06/13 12:59:18;;;;;;;6.30;1.90;;;18.90;99.90;;;;;;4846679;29;20049;-77
2022/06/13 13:02:09;;;;;;;9.73;1.90;;;18.60;99.90;;;;;;4852708;29;20084;-77
2022/06/13 13:05:02;;;;;;;5.70;1.40;;;18.10;99.90;;;;;;4854181;29;20459;-78
2022/06/13 13:07:58;;;;;;;5.05;1.27;;;17.70;99.90;;;;;;4864567;29;20048;-77
2022/06/13 13:10:56;;;;;;;3.58;1.20;;;17.80;99.90;;;;;;4875119;29;20068;-80
2022/06/13 13:13:48;;;;;;;4.53;1.52;;;18.00;99.90;;;;;;4845085;29;20056;-77
2022/06/13 13:16:53;;;;;;;6.20;1.27;;;18.00;99.90;;;;;;4871865;29;20044;-78
2022/06/13 13:19:46;;;;;;;4.85;1.50;;;17.80;99.90;;;;;;4848310;29;20049;-77
2022/06/13 13:22:42;;;;;;;4.00;1.60;;;17.50;99.90;;;;;;4836469;29;20084;-78
2022/06/13 13:25:35;;;;;;;7.35;1.70;;;17.10;99.90;;;;;;4852016;29;20674;-77
2022/06/13 13:28:22;;;;;;;6.03;1.70;;;17.00;99.90;;;;;;4888646;29;20060;-77
2022/06/13 13:31:02;;;;;;;7.63;1.83;;;17.00;99.90;;;;;;4856214;29;20469;-77
2022/06/13 13:33:28;;;;;;;7.47;1.77;;;16.90;99.90;;;;;;4860315;29;20491;-78
2022/06/13 13:35:59;;;;;;;6.47;1.95;;;16.80;99.90;;;;;;4846983;29;20079;-78
2022/06/13 13:38:36;;;;;;;7.10;1.98;;;16.80;99.90;;;;;;4841541;29;20163;-76
2022/06/13 13:41:25;;;;;;;6.22;1.92;;;16.80;99.90;;;;;;4859383;29;20517;-78
2022/06/13 13:44:05;;;;;;;10.18;2.20;;;16.60;99.90;;;;;;4850915;29;20464;-78
2022/06/13 13:47:01;;;;;;;7.10;1.90;;;16.60;99.90;;;;;;4852796;29;20040;-78